Terminal Aerodrome Forecast
Issued by NWS Tampa Bay Area, FL

Home | Current Version | Previous Version | Text Only | Print | Product List | Glossary On
Versions: 1 2 3 4 5 6 7 8 9 10 11 12 13 14 15 16 17 18 19 20 21 22 23
000
FTUS42 KTBW 060500
TAFSRQ
TAF
KSRQ 060531Z 0606/0706 26007KT 6SM BR SCT005 OVC010
      TEMPO 0606/0610 3SM BR BKN004 OVC010
     FM061100 35006KT 3SM BR FEW005 SCT030
     FM061500 03007KT P6SM SCT005
     FM062100 04008KT P6SM VCSH SCT030 BKN050=

USA.gov is the U.S. government's official web portal to all federal, state and local government web resources and services.